Time;durP1;ratioP1;P1;durP2;ratioP2;P2;SDS_P1;SDS_P2;PMS_P1;PMS_P2;Temp;Humidity;BMP_temperature;BMP_pressure;BME280_temperature;BME280_humidity;BME280_pressure;Samples;Min_cycle;Max_cycle;Signal;HPM_P1;HPM_P2
2023/01/19 00:01:40;;;;;;;3.05;2.85;;;3.50;99.90;;;;;;5098514;28;20283;-81
2023/01/19 00:04:09;;;;;;;3.42;3.13;;;3.50;99.90;;;;;;5116706;28;20226;-83
2023/01/19 00:06:39;;;;;;;5.55;4.32;;;3.40;99.90;;;;;;5116307;28;20206;-82
2023/01/19 00:09:07;;;;;;;3.83;3.50;;;3.40;99.90;;;;;;5115440;28;20215;-82
2023/01/19 00:11:35;;;;;;;3.67;3.35;;;3.40;99.90;;;;;;5115915;28;20203;-82
2023/01/19 00:14:04;;;;;;;3.85;3.38;;;3.30;99.90;;;;;;5116699;28;20235;-83
2023/01/19 00:16:32;;;;;;;4.43;4.03;;;3.30;99.90;;;;;;5116117;28;20212;-82
2023/01/19 00:19:00;;;;;;;3.50;3.20;;;3.30;99.90;;;;;;5116098;28;20234;-82
2023/01/19 00:21:28;;;;;;;3.03;2.80;;;3.30;99.90;;;;;;5115553;28;20210;-81
2023/01/19 00:23:58;;;;;;;3.40;3.10;;;3.30;99.90;;;;;;5115840;28;20234;-82
2023/01/19 00:26:26;;;;;;;4.32;3.90;;;3.30;99.90;;;;;;5116196;28;20210;-82
2023/01/19 00:28:55;;;;;;;3.92;3.53;;;3.30;99.90;;;;;;5115733;28;20287;-81
2023/01/19 00:31:23;;;;;;;3.63;3.33;;;3.20;99.90;;;;;;5116094;28;20204;-82
2023/01/19 00:33:51;;;;;;;3.22;3.00;;;3.20;99.90;;;;;;5115630;28;20227;-82
2023/01/19 00:36:20;;;;;;;4.03;3.63;;;3.10;99.90;;;;;;5115538;28;20204;-83
2023/01/19 00:38:48;;;;;;;4.57;4.18;;;3.10;99.90;;;;;;5115681;28;20215;-82
2023/01/19 00:42:38;;;;;;;4.68;4.28;;;3.10;99.90;;;;;;5115482;28;20196;-82
2023/01/19 00:44:06;;;;;;;7.15;4.55;;;3.10;99.90;;;;;;5115712;28;20216;-81
2023/01/19 00:46:34;;;;;;;3.42;3.10;;;3.00;99.90;;;;;;5115709;28;20287;-82
2023/01/19 00:49:03;;;;;;;2.90;2.70;;;3.10;99.90;;;;;;5115746;28;20200;-82
2023/01/19 00:51:31;;;;;;;3.45;3.17;;;3.00;99.90;;;;;;5115419;28;20259;-82
2023/01/19 00:54:09;;;;;;;3.95;3.65;;;3.00;99.90;;;;;;5116030;28;20235;-83
2023/01/19 00:56:38;;;;;;;3.75;3.45;;;3.00;99.90;;;;;;5115479;28;20200;-82
2023/01/19 00:59:07;;;;;;;3.58;3.33;;;2.90;99.90;;;;;;5115096;28;20216;-83
2023/01/19 01:01:35;;;;;;;5.18;3.97;;;2.90;99.90;;;;;;5115251;28;20242;-82
2023/01/19 01:04:17;;;;;;;4.35;3.95;;;2.90;99.90;;;;;;5115070;28;20196;-83
2023/01/19 01:06:45;;;;;;;4.55;4.15;;;2.80;99.90;;;;;;5115613;28;20214;-82
2023/01/19 01:09:13;;;;;;;4.85;4.40;;;2.80;99.90;;;;;;5114905;28;20212;-81
2023/01/19 01:11:43;;;;;;;4.43;4.03;;;2.80;99.90;;;;;;5114984;28;20211;-82
2023/01/19 01:14:13;;;;;;;4.03;3.72;;;2.80;99.90;;;;;;5115126;28;20237;-83
2023/01/19 01:16:41;;;;;;;4.45;4.05;;;2.80;99.90;;;;;;5115267;28;20204;-83
2023/01/19 01:19:09;;;;;;;4.40;3.97;;;2.80;99.90;;;;;;5115052;28;20218;-83
2023/01/19 01:21:39;;;;;;;5.07;3.90;;;2.80;99.90;;;;;;5114643;28;20226;-83
2023/01/19 01:24:09;;;;;;;4.55;4.15;;;2.80;99.90;;;;;;5114710;28;20258;-82
2023/01/19 01:26:37;;;;;;;5.53;4.25;;;2.80;99.90;;;;;;5114488;28;20208;-81
2023/01/19 01:29:07;;;;;;;4.05;3.75;;;2.70;99.90;;;;;;5114331;28;20199;-83
2023/01/19 01:31:35;;;;;;;5.47;4.28;;;2.80;99.90;;;;;;5114127;28;20204;-83
2023/01/19 01:34:04;;;;;;;4.18;3.88;;;2.80;99.90;;;;;;5114513;28;20250;-83
2023/01/19 01:36:32;;;;;;;3.63;3.33;;;2.80;99.90;;;;;;5114350;28;20207;-83
2023/01/19 01:39:01;;;;;;;4.78;3.95;;;2.80;99.90;;;;;;5114390;28;20208;-82
2023/01/19 01:41:29;;;;;;;4.03;3.63;;;2.80;99.90;;;;;;5114891;28;20200;-82
2023/01/19 01:44:00;;;;;;;4.05;3.75;;;2.80;99.90;;;;;;5114761;28;20277;-82
2023/01/19 01:46:31;;;;;;;3.53;3.28;;;2.80;99.90;;;;;;5114821;28;20200;-83
2023/01/19 01:49:05;;;;;;;3.63;3.33;;;2.80;99.90;;;;;;5114003;28;20211;-81
2023/01/19 01:51:37;;;;;;;3.72;3.30;;;2.80;99.90;;;;;;5114195;28;20261;-83
2023/01/19 01:54:15;;;;;;;4.28;3.40;;;2.80;99.90;;;;;;5114104;28;20216;-82
2023/01/19 01:56:46;;;;;;;3.30;3.08;;;2.80;99.90;;;;;;5114178;28;20227;-82
2023/01/19 01:59:24;;;;;;;6.13;4.65;;;2.90;99.90;;;;;;5114039;28;20204;-81
2023/01/19 02:04:47;;;;;;;4.40;3.97;;;2.90;99.90;;;;;;5114091;28;20208;-82
2023/01/19 02:15:43;;;;;;;3.53;3.22;;;2.90;99.90;;;;;;5114341;28;20196;-81
2023/01/19 02:18:12;;;;;;;4.43;4.03;;;2.90;99.90;;;;;;5113636;28;20204;-82
2023/01/19 02:20:46;;;;;;;4.00;3.53;;;2.90;99.90;;;;;;5114121;28;20224;-83
2023/01/19 02:23:20;;;;;;;5.22;4.22;;;2.90;99.90;;;;;;5113539;28;20231;-83
2023/01/19 02:25:50;;;;;;;3.92;3.63;;;2.90;99.90;;;;;;5114332;28;20290;-82
2023/01/19 02:28:18;;;;;;;3.95;3.65;;;2.90;99.90;;;;;;5114185;28;20211;-82
2023/01/19 02:30:47;;;;;;;4.80;3.93;;;2.90;99.90;;;;;;5113868;28;20206;-82
2023/01/19 02:33:15;;;;;;;4.18;3.88;;;2.90;99.90;;;;;;5113595;28;20313;-81
2023/01/19 02:35:45;;;;;;;3.97;3.55;;;3.00;99.90;;;;;;5113291;28;20198;-82
2023/01/19 02:38:15;;;;;;;3.70;3.40;;;3.00;99.90;;;;;;5113874;28;20207;-81
2023/01/19 02:40:45;;;;;;;4.25;3.75;;;3.00;99.90;;;;;;5113377;28;20216;-82
2023/01/19 02:43:16;;;;;;;5.05;4.13;;;3.00;99.90;;;;;;5113886;28;20313;-81
2023/01/19 02:45:45;;;;;;;3.72;3.42;;;3.00;99.90;;;;;;5115419;28;20218;-81
2023/01/19 02:48:14;;;;;;;4.25;3.83;;;3.00;99.90;;;;;;5117870;28;20226;-82
2023/01/19 02:50:48;;;;;;;3.38;3.15;;;3.00;99.90;;;;;;5117881;28;20205;-81
2023/01/19 02:53:36;;;;;;;4.25;3.85;;;3.00;99.90;;;;;;5117724;28;20232;-81
2023/01/19 02:56:19;;;;;;;4.60;3.92;;;3.00;99.90;;;;;;5117829;28;20191;-81
2023/01/19 02:58:58;;;;;;;4.55;4.13;;;3.00;99.90;;;;;;5117299;28;20203;-81
2023/01/19 03:01:33;;;;;;;4.45;3.33;;;3.00;99.90;;;;;;5117700;28;20221;-81
2023/01/19 03:04:13;;;;;;;2.90;2.70;;;3.00;99.90;;;;;;5117607;28;20223;-81
2023/01/19 03:06:48;;;;;;;3.95;3.65;;;3.00;99.90;;;;;;5117447;28;20204;-81
2023/01/19 03:09:27;;;;;;;4.03;3.72;;;3.00;99.90;;;;;;5117076;28;20203;-81
2023/01/19 03:12:04;;;;;;;4.30;3.97;;;2.90;99.90;;;;;;5117525;28;20217;-82
2023/01/19 03:14:38;;;;;;;3.88;3.58;;;2.90;99.90;;;;;;5117574;28;20210;-81
2023/01/19 03:17:10;;;;;;;3.50;3.25;;;2.90;99.90;;;;;;5117233;28;20199;-82
2023/01/19 03:19:42;;;;;;;6.53;4.30;;;2.90;99.90;;;;;;5117164;28;20207;-81
2023/01/19 03:22:14;;;;;;;4.80;3.67;;;2.80;99.90;;;;;;5117169;28;20278;-81
2023/01/19 03:24:46;;;;;;;4.55;3.55;;;2.80;99.90;;;;;;5117525;28;20208;-81
2023/01/19 03:27:19;;;;;;;4.30;3.78;;;2.80;99.90;;;;;;5115942;28;20203;-82
2023/01/19 03:29:53;;;;;;;4.63;4.15;;;2.80;99.90;;;;;;5117315;28;20226;-81
2023/01/19 03:32:28;;;;;;;3.50;3.25;;;2.80;99.90;;;;;;5117053;28;20241;-81
2023/01/19 03:34:59;;;;;;;4.05;3.60;;;2.80;99.90;;;;;;5117644;28;20207;-81
2023/01/19 03:37:30;;;;;;;3.67;3.38;;;2.70;99.90;;;;;;5116757;28;20210;-81
2023/01/19 03:39:58;;;;;;;3.50;3.20;;;2.70;99.90;;;;;;5116766;28;20199;-81
2023/01/19 03:42:28;;;;;;;3.60;3.30;;;2.70;99.90;;;;;;5116672;28;20231;-81
2023/01/19 03:45:01;;;;;;;3.60;3.30;;;2.70;99.90;;;;;;5117127;28;20203;-81
2023/01/19 03:47:29;;;;;;;4.43;3.78;;;2.70;99.90;;;;;;5116454;28;20202;-81
2023/01/19 03:50:01;;;;;;;5.22;4.70;;;2.80;99.90;;;;;;5116648;28;20214;-81
2023/01/19 03:52:32;;;;;;;12.23;4.00;;;2.80;99.90;;;;;;5116566;28;20318;-81
2023/01/19 03:55:01;;;;;;;4.32;3.95;;;2.80;99.90;;;;;;5116648;28;20207;-82
2023/01/19 03:57:29;;;;;;;6.22;4.75;;;2.80;99.90;;;;;;5116298;28;20209;-81
2023/01/19 03:59:59;;;;;;;4.40;4.00;;;2.80;99.90;;;;;;5116904;28;20204;-82
2023/01/19 04:02:27;;;;;;;4.60;4.20;;;2.90;99.90;;;;;;5116660;28;20228;-81
2023/01/19 04:04:55;;;;;;;7.20;4.65;;;2.90;99.90;;;;;;5116285;28;20207;-81
2023/01/19 04:07:24;;;;;;;4.40;4.05;;;3.00;99.90;;;;;;5116256;28;20195;-81
2023/01/19 04:09:52;;;;;;;4.60;4.05;;;3.00;99.90;;;;;;5116337;28;20218;-81
2023/01/19 04:12:20;;;;;;;5.15;4.65;;;2.90;99.90;;;;;;5116651;28;20224;-82
2023/01/19 04:14:49;;;;;;;4.63;4.22;;;3.00;99.90;;;;;;5116726;28;20212;-82
2023/01/19 04:17:18;;;;;;;4.88;3.92;;;3.00;99.90;;;;;;5115105;28;20256;-82
2023/01/19 04:19:47;;;;;;;4.28;3.90;;;2.90;99.90;;;;;;5115818;28;20203;-82
2023/01/19 04:22:15;;;;;;;5.13;4.63;;;2.90;99.90;;;;;;5115723;28;20227;-82
2023/01/19 04:24:43;;;;;;;4.38;3.97;;;2.90;99.90;;;;;;5115621;28;20214;-82
2023/01/19 04:27:13;;;;;;;4.05;3.65;;;2.90;99.90;;;;;;5115701;28;20212;-82
2023/01/19 04:29:42;;;;;;;4.77;4.33;;;2.90;99.90;;;;;;5116115;28;20207;-82
2023/01/19 04:32:10;;;;;;;4.90;4.47;;;2.90;99.90;;;;;;5116078;28;20195;-81
2023/01/19 04:34:40;;;;;;;4.20;3.90;;;2.90;99.90;;;;;;5115839;28;20235;-82
2023/01/19 04:37:08;;;;;;;5.97;4.10;;;2.90;99.90;;;;;;5115448;28;20192;-81
2023/01/19 04:39:36;;;;;;;6.10;5.05;;;2.90;99.90;;;;;;5115727;28;20215;-82
2023/01/19 04:42:05;;;;;;;4.38;4.05;;;2.90;99.90;;;;;;5115436;28;20227;-82
2023/01/19 04:44:33;;;;;;;4.10;3.80;;;3.00;99.90;;;;;;5115954;28;20203;-81
2023/01/19 04:47:02;;;;;;;5.13;4.50;;;3.00;99.90;;;;;;5114976;28;20214;-82
2023/01/19 04:49:30;;;;;;;4.22;3.90;;;3.00;99.90;;;;;;5115996;28;20215;-82
2023/01/19 04:52:00;;;;;;;5.20;4.70;;;3.00;99.90;;;;;;5115178;28;20199;-82
2023/01/19 04:54:28;;;;;;;5.35;4.85;;;3.00;99.90;;;;;;5115786;28;20207;-82
2023/01/19 04:56:56;;;;;;;3.97;3.67;;;3.00;99.90;;;;;;5115290;28;20235;-82
2023/01/19 04:59:24;;;;;;;6.95;5.10;;;2.90;99.90;;;;;;5115509;28;20206;-82
2023/01/19 05:01:53;;;;;;;4.90;4.30;;;2.90;99.90;;;;;;5114798;28;20258;-83
2023/01/19 05:04:21;;;;;;;4.47;4.07;;;2.90;99.90;;;;;;5115286;28;20294;-83
2023/01/19 05:06:50;;;;;;;5.20;4.65;;;2.90;99.90;;;;;;5115202;28;20210;-82
2023/01/19 05:09:20;;;;;;;4.93;4.53;;;3.00;99.90;;;;;;5114200;28;20203;-82
2023/01/19 05:11:48;;;;;;;5.88;5.07;;;2.90;99.90;;;;;;5115595;28;20199;-82
2023/01/19 05:14:16;;;;;;;4.85;4.45;;;2.90;99.90;;;;;;5115099;28;20231;-82
2023/01/19 05:16:45;;;;;;;5.15;4.72;;;2.90;99.90;;;;;;5115138;28;20210;-81
2023/01/19 05:19:13;;;;;;;5.40;4.90;;;2.90;99.90;;;;;;5114986;28;20208;-83
2023/01/19 05:21:41;;;;;;;6.03;5.43;;;2.90;99.90;;;;;;5115092;28;20227;-82
2023/01/19 05:24:09;;;;;;;5.65;4.97;;;2.90;99.90;;;;;;5114728;28;20224;-81
2023/01/19 05:26:39;;;;;;;6.15;5.57;;;2.90;99.90;;;;;;5114265;28;20202;-82
2023/01/19 05:29:08;;;;;;;5.13;4.68;;;2.90;99.90;;;;;;5114769;28;20212;-82
2023/01/19 05:31:37;;;;;;;5.38;4.88;;;2.90;99.90;;;;;;5114626;28;20202;-82
2023/01/19 05:34:05;;;;;;;5.68;5.18;;;2.90;99.90;;;;;;5114344;28;20234;-81
2023/01/19 05:36:33;;;;;;;5.05;4.65;;;2.90;99.90;;;;;;5114623;28;20196;-82
2023/01/19 05:39:02;;;;;;;6.60;5.47;;;3.00;99.90;;;;;;5110661;28;20196;-81
2023/01/19 05:41:30;;;;;;;8.77;5.07;;;2.90;99.90;;;;;;5113954;28;20223;-82
2023/01/19 05:44:00;;;;;;;6.07;5.50;;;2.90;99.90;;;;;;5114079;28;20299;-82
2023/01/19 05:46:28;;;;;;;7.57;5.68;;;2.90;99.90;;;;;;5114095;28;20195;-84
2023/01/19 05:48:57;;;;;;;6.00;5.43;;;3.00;99.90;;;;;;5114091;28;20276;-82
2023/01/19 05:51:25;;;;;;;5.13;4.72;;;3.00;99.90;;;;;;5114252;28;20204;-82
2023/01/19 05:53:54;;;;;;;7.50;5.38;;;3.00;99.90;;;;;;5114588;28;20223;-82
2023/01/19 05:56:22;;;;;;;8.20;5.20;;;3.00;99.90;;;;;;5114454;28;20206;-82
2023/01/19 05:58:50;;;;;;;7.20;6.53;;;3.00;99.90;;;;;;5113925;28;20208;-82
2023/01/19 06:01:20;;;;;;;6.30;5.70;;;2.90;99.90;;;;;;5114102;28;20212;-82
2023/01/19 06:03:49;;;;;;;6.90;6.13;;;2.90;99.90;;;;;;5113919;28;20220;-82
2023/01/19 06:06:17;;;;;;;8.13;5.68;;;2.90;99.90;;;;;;5114030;28;20199;-82
2023/01/19 06:08:46;;;;;;;5.20;4.70;;;2.90;99.90;;;;;;5114077;28;20203;-81
2023/01/19 06:11:14;;;;;;;5.65;5.25;;;2.90;99.90;;;;;;5114470;28;20298;-82
2023/01/19 06:13:43;;;;;;;7.13;6.13;;;2.90;99.90;;;;;;5113377;28;20234;-84
2023/01/19 06:16:11;;;;;;;6.20;5.60;;;2.90;99.90;;;;;;5113969;28;20202;-87
2023/01/19 06:18:41;;;;;;;7.38;6.05;;;2.90;99.90;;;;;;5113299;28;20204;-85
2023/01/19 06:21:13;;;;;;;6.03;5.38;;;3.00;99.90;;;;;;5113270;28;20206;-84
2023/01/19 06:23:41;;;;;;;6.13;5.53;;;2.90;99.90;;;;;;5114039;28;20228;-86
2023/01/19 06:26:09;;;;;;;6.60;5.35;;;2.90;99.90;;;;;;5113296;28;20284;-85
2023/01/19 06:28:38;;;;;;;13.00;5.75;;;2.90;99.90;;;;;;5093440;28;20204;-87
2023/01/19 06:31:06;;;;;;;13.02;6.32;;;2.90;99.90;;;;;;5099713;28;20247;-92
2023/01/19 06:33:35;;;;;;;6.82;5.85;;;3.00;99.90;;;;;;5104574;28;20246;-85
2023/01/19 06:36:05;;;;;;;6.50;5.75;;;3.00;99.90;;;;;;5112805;28;20279;-88
2023/01/19 06:38:34;;;;;;;6.00;5.30;;;3.00;99.90;;;;;;5114298;28;20200;-84
2023/01/19 06:41:03;;;;;;;5.95;5.35;;;2.90;99.90;;;;;;5113243;28;20198;-85
2023/01/19 06:43:31;;;;;;;4.38;4.00;;;3.00;99.90;;;;;;5112917;28;20236;-84
2023/01/19 06:46:01;;;;;;;6.43;5.53;;;3.00;99.90;;;;;;5113164;28;20195;-85
2023/01/19 06:48:29;;;;;;;5.85;5.25;;;3.00;99.90;;;;;;5112735;28;20211;-85
2023/01/19 06:50:57;;;;;;;5.68;5.18;;;3.00;99.90;;;;;;5112966;28;20218;-85
2023/01/19 06:53:29;;;;;;;5.35;4.45;;;3.00;99.90;;;;;;5112997;28;20218;-86
2023/01/19 06:56:00;;;;;;;5.13;4.65;;;3.00;99.90;;;;;;5113088;28;20210;-84
2023/01/19 06:58:29;;;;;;;7.65;5.38;;;3.00;99.90;;;;;;5112911;28;20204;-85
2023/01/19 07:01:29;;;;;;;5.40;4.88;;;3.00;99.90;;;;;;5112979;28;20208;-84
2023/01/19 07:04:03;;;;;;;5.93;5.32;;;2.90;99.90;;;;;;5112567;28;20314;-85
2023/01/19 07:06:52;;;;;;;6.90;5.72;;;2.90;99.90;;;;;;5113347;28;20203;-85
2023/01/19 07:09:24;;;;;;;6.47;5.07;;;2.90;99.90;;;;;;5108351;28;20222;-84
2023/01/19 07:12:02;;;;;;;7.00;5.10;;;2.90;99.90;;;;;;5112847;28;20204;-85
2023/01/19 07:14:32;;;;;;;5.97;5.18;;;2.90;99.90;;;;;;5113018;28;20219;-85
2023/01/19 07:17:01;;;;;;;4.45;4.05;;;3.00;99.90;;;;;;5112579;28;20225;-85
2023/01/19 07:19:50;;;;;;;5.05;4.55;;;3.00;99.90;;;;;;5112813;28;20212;-85
2023/01/19 07:22:21;;;;;;;4.70;4.35;;;3.00;99.90;;;;;;5112489;28;20236;-84
2023/01/19 07:24:53;;;;;;;5.72;4.88;;;3.00;99.90;;;;;;5112335;28;20295;-85
2023/01/19 07:30:45;;;;;;;5.30;4.47;;;3.10;99.90;;;;;;5111867;28;20207;-85
2023/01/19 07:33:38;;;;;;;4.57;4.18;;;3.10;99.90;;;;;;5115909;28;20239;-85
2023/01/19 07:36:22;;;;;;;5.30;4.72;;;3.00;99.90;;;;;;5115900;28;20211;-85
2023/01/19 07:39:09;;;;;;;4.80;4.40;;;3.10;99.90;;;;;;5115891;28;20208;-84
2023/01/19 07:41:39;;;;;;;6.95;5.30;;;3.00;99.90;;;;;;5116322;28;20212;-84
2023/01/19 07:44:10;;;;;;;5.38;4.97;;;3.10;99.90;;;;;;5115872;28;20230;-85
2023/01/19 07:46:52;;;;;;;4.30;4.00;;;3.10;99.90;;;;;;5116270;28;20401;-85
2023/01/19 07:49:21;;;;;;;7.32;5.50;;;3.10;99.90;;;;;;5115862;28;20291;-85
2023/01/19 07:51:49;;;;;;;23.08;8.40;;;3.00;99.90;;;;;;5115698;28;20214;-84
2023/01/19 07:54:19;;;;;;;6.35;5.45;;;3.10;99.90;;;;;;5115519;28;20294;-85
2023/01/19 07:56:48;;;;;;;6.40;5.47;;;3.10;99.90;;;;;;5115428;28;20214;-85
2023/01/19 07:59:24;;;;;;;7.32;4.93;;;3.10;99.90;;;;;;5115312;27;20203;-86
2023/01/19 08:02:00;;;;;;;6.55;5.82;;;3.10;99.90;;;;;;5115649;28;20207;-85
2023/01/19 08:04:33;;;;;;;6.55;5.43;;;3.10;99.90;;;;;;5115131;28;20215;-85
2023/01/19 08:07:03;;;;;;;5.30;4.80;;;3.10;99.90;;;;;;5115627;28;20248;-86
2023/01/19 08:09:36;;;;;;;5.43;4.93;;;3.10;99.90;;;;;;5115128;28;20278;-85
2023/01/19 08:12:17;;;;;;;5.43;4.90;;;3.10;99.90;;;;;;5114913;28;20209;-85
2023/01/19 08:14:48;;;;;;;4.45;4.05;;;3.10;99.90;;;;;;5115615;28;20205;-85
2023/01/19 08:17:19;;;;;;;7.35;5.38;;;3.10;99.90;;;;;;5115473;28;20204;-85
2023/01/19 08:20:15;;;;;;;;;;;;;;;;;;;;;
2023/01/19 08:23:17;;;;;;;6.72;5.35;;;3.20;99.90;;;;;;5115370;28;20222;-85
2023/01/19 08:25:46;;;;;;;10.55;5.88;;;3.20;99.90;;;;;;5115175;28;20226;-85
2023/01/19 08:28:24;;;;;;;4.18;3.88;;;3.20;99.90;;;;;;5114927;28;20294;-85
2023/01/19 08:33:53;;;;;;;6.22;4.88;;;3.30;99.90;;;;;;5109344;28;20276;-85
2023/01/19 08:36:44;;;;;;;5.88;5.22;;;3.20;99.90;;;;;;5114865;28;20204;-85
2023/01/19 08:42:49;;;;;;;7.72;6.22;;;3.20;99.90;;;;;;5092717;28;20219;-85
2023/01/19 08:48:41;;;;;;;5.70;5.03;;;3.30;99.90;;;;;;5114401;28;20200;-85
2023/01/19 08:51:19;;;;;;;5.47;4.90;;;3.40;99.90;;;;;;5114919;28;20199;-85
2023/01/19 08:53:59;;;;;;;5.72;4.70;;;3.50;99.90;;;;;;5114377;28;20212;-84
2023/01/19 08:56:28;;;;;;;4.45;4.05;;;3.50;99.90;;;;;;5114725;28;20253;-84
2023/01/19 08:59:19;;;;;;;6.93;5.60;;;3.60;99.90;;;;;;5114364;28;20284;-85
2023/01/19 09:02:11;;;;;;;5.30;4.80;;;3.70;99.90;;;;;;5113978;28;20199;-85
2023/01/19 09:04:57;;;;;;;5.43;4.88;;;3.60;99.90;;;;;;5114174;28;20251;-84
2023/01/19 09:07:29;;;;;;;4.60;4.20;;;3.60;99.90;;;;;;5114127;28;20203;-85
2023/01/19 09:10:49;;;;;;;4.15;3.72;;;3.60;99.90;;;;;;5114208;28;20268;-84
2023/01/19 09:17:13;;;;;;;14.07;4.60;;;3.60;99.90;;;;;;5042257;28;20202;-87
2023/01/19 09:19:45;;;;;;;5.85;4.15;;;3.60;99.90;;;;;;5051477;28;20209;-84
2023/01/19 09:23:11;;;;;;;5.50;4.75;;;3.60;99.90;;;;;;5051142;28;20293;-85
2023/01/19 09:26:05;;;;;;;4.80;4.07;;;3.70;99.90;;;;;;4971800;28;20257;-85
2023/01/19 09:31:18;;;;;;;4.32;3.92;;;3.70;99.90;;;;;;5043476;28;20209;-85
2023/01/19 09:34:06;;;;;;;3.60;3.30;;;3.80;99.90;;;;;;5050724;28;20253;-85
2023/01/19 09:36:36;;;;;;;4.10;3.80;;;3.70;99.90;;;;;;5050969;28;20293;-85
2023/01/19 09:39:14;;;;;;;6.20;4.18;;;3.80;99.90;;;;;;5051386;28;20210;-87
2023/01/19 09:42:58;;;;;;;3.28;2.95;;;3.70;99.90;;;;;;5047049;28;20215;-86
2023/01/19 09:45:50;;;;;;;5.85;3.70;;;3.70;99.90;;;;;;4956798;28;20297;-85
2023/01/19 09:52:25;;;;;;;3.38;3.08;;;3.90;99.90;;;;;;4969071;28;20205;-85
2023/01/19 09:54:57;;;;;;;4.07;3.67;;;3.90;99.90;;;;;;5094814;28;20206;-85
2023/01/19 10:05:00;;;;;;;4.50;3.58;;;4.00;99.90;;;;;;5055751;28;20225;-85
2023/01/19 10:07:52;;;;;;;7.00;3.80;;;4.00;99.90;;;;;;5113233;28;20231;-85
2023/01/19 10:10:41;;;;;;;4.50;4.00;;;4.00;99.90;;;;;;5112651;28;20229;-85
2023/01/19 10:13:53;;;;;;;3.00;2.58;;;4.10;99.90;;;;;;5112982;28;20231;-85
2023/01/19 10:16:56;;;;;;;2.92;2.70;;;4.20;99.90;;;;;;5111534;28;20207;-85
2023/01/19 10:20:07;;;;;;;3.45;3.15;;;4.30;99.90;;;;;;5112785;28;20230;-85
2023/01/19 10:27:36;;;;;;;3.33;3.08;;;4.50;99.90;;;;;;4794142;29;20241;-85
2023/01/19 10:30:17;;;;;;;4.05;3.75;;;4.70;99.90;;;;;;4840188;29;20213;-85
2023/01/19 10:32:46;;;;;;;4.53;4.13;;;4.70;99.90;;;;;;4873738;29;20232;-85
2023/01/19 10:35:20;;;;;;;3.65;3.15;;;4.70;99.90;;;;;;4933061;29;20220;-85
2023/01/19 10:38:04;;;;;;;4.00;3.60;;;4.40;99.90;;;;;;4933103;29;20223;-85
2023/01/19 10:43:57;;;;;;;20.40;4.72;;;4.30;99.90;;;;;;4916571;29;20285;-85
2023/01/19 10:46:49;;;;;;;3.80;3.50;;;4.40;99.90;;;;;;5049770;28;20296;-87
2023/01/19 10:49:42;;;;;;;6.18;4.80;;;4.40;99.90;;;;;;5049642;28;20208;-85
2023/01/19 10:52:57;;;;;;;5.57;4.65;;;4.50;99.90;;;;;;5050297;28;20209;-86
2023/01/19 10:55:40;;;;;;;4.50;4.10;;;4.50;99.90;;;;;;5107790;28;20245;-86
2023/01/19 10:58:36;;;;;;;6.18;4.90;;;4.60;99.90;;;;;;5113093;28;20260;-86
2023/01/19 11:01:36;;;;;;;4.05;3.75;;;4.80;99.90;;;;;;5111932;28;20245;-86
2023/01/19 11:04:51;;;;;;;4.68;4.18;;;4.80;99.90;;;;;;5112275;28;20239;-85
2023/01/19 11:07:22;;;;;;;3.13;2.92;;;4.80;99.90;;;;;;5112284;28;20299;-85
2023/01/19 11:10:24;;;;;;;3.10;2.85;;;4.90;99.90;;;;;;5116788;28;20298;-84
2023/01/19 11:13:00;;;;;;;3.28;2.97;;;4.60;99.90;;;;;;5116485;28;20243;-85
2023/01/19 11:15:51;;;;;;;3.53;3.22;;;4.50;99.90;;;;;;5116556;28;20191;-85
2023/01/19 11:18:48;;;;;;;3.85;3.55;;;4.60;99.90;;;;;;5116035;28;20286;-85
2023/01/19 11:21:29;;;;;;;3.33;3.03;;;4.80;99.90;;;;;;5116898;28;20215;-85
2023/01/19 11:24:15;;;;;;;12.65;3.90;;;4.90;99.90;;;;;;5116581;28;20295;-85
2023/01/19 11:27:02;;;;;;;3.60;3.30;;;4.90;99.90;;;;;;5115603;28;20195;-85
2023/01/19 11:29:34;;;;;;;3.22;2.92;;;4.80;99.90;;;;;;5116233;28;20263;-85
2023/01/19 11:32:28;;;;;;;3.10;2.90;;;4.70;99.90;;;;;;5104303;28;20224;-84
2023/01/19 11:34:57;;;;;;;3.42;2.58;;;4.60;99.90;;;;;;5116100;28;20204;-84
2023/01/19 11:37:29;;;;;;;3.80;3.15;;;4.40;99.90;;;;;;5115925;28;20200;-85
2023/01/19 11:40:15;;;;;;;2.38;2.17;;;4.40;99.90;;;;;;5115905;28;20195;-85
2023/01/19 11:42:43;;;;;;;3.55;2.67;;;4.30;99.90;;;;;;5115557;28;20224;-84
2023/01/19 11:45:24;;;;;;;4.68;2.30;;;4.30;99.90;;;;;;5116008;28;20254;-85
2023/01/19 11:47:52;;;;;;;2.40;2.30;;;4.40;99.90;;;;;;5115806;28;20207;-86
2023/01/19 11:50:28;;;;;;;2.63;2.33;;;4.10;99.90;;;;;;5116093;28;20204;-85
2023/01/19 11:53:10;;;;;;;3.20;2.90;;;4.10;99.90;;;;;;5116108;28;20215;-85
2023/01/19 11:56:00;;;;;;;3.72;2.75;;;4.00;99.90;;;;;;5115771;28;20206;-85
2023/01/19 11:58:37;;;;;;;4.25;3.05;;;4.10;99.90;;;;;;5115176;28;20255;-85
2023/01/19 12:01:20;;;;;;;3.03;2.83;;;4.00;99.90;;;;;;5115738;28;20211;-85
2023/01/19 12:04:03;;;;;;;2.50;2.35;;;3.90;99.90;;;;;;5115574;28;20260;-85
2023/01/19 12:06:37;;;;;;;3.13;2.13;;;3.90;99.90;;;;;;5114992;28;20212;-85
2023/01/19 12:09:13;;;;;;;2.75;2.55;;;3.80;99.90;;;;;;5115005;28;20211;-85
2023/01/19 12:12:12;;;;;;;4.32;1.73;;;3.80;99.90;;;;;;5114958;28;20299;-85
2023/01/19 12:15:10;;;;;;;10.88;2.20;;;3.80;99.90;;;;;;5110578;28;20196;-85
2023/01/19 12:17:50;;;;;;;2.47;2.00;;;3.70;99.90;;;;;;5113628;28;20203;-85
2023/01/19 12:20:39;;;;;;;2.78;2.53;;;3.80;99.90;;;;;;5115140;28;20207;-85
2023/01/19 12:23:57;;;;;;;2.75;2.40;;;3.80;99.90;;;;;;5115203;28;20231;-85
2023/01/19 12:29:36;;;;;;;2.38;2.17;;;3.70;99.90;;;;;;5065216;28;20257;-85
2023/01/19 12:36:51;;;;;;;2.42;2.22;;;3.60;99.90;;;;;;5049561;28;20197;-84
2023/01/19 12:39:22;;;;;;;3.08;2.28;;;3.60;99.90;;;;;;5072151;28;20211;-84
2023/01/19 12:42:11;;;;;;;3.70;2.90;;;3.70;99.90;;;;;;5115079;28;20231;-85
2023/01/19 12:45:04;;;;;;;2.88;2.55;;;3.60;99.90;;;;;;5114754;28;20196;-84
2023/01/19 12:47:32;;;;;;;3.65;3.28;;;3.60;99.90;;;;;;5114645;28;20287;-85
2023/01/19 12:50:08;;;;;;;3.13;2.70;;;3.60;99.90;;;;;;5114680;28;20210;-85
2023/01/19 12:52:46;;;;;;;4.20;2.85;;;3.70;99.90;;;;;;5114568;28;20314;-85
2023/01/19 12:55:29;;;;;;;4.85;3.20;;;3.70;99.90;;;;;;5114510;28;20293;-85
2023/01/19 12:58:02;;;;;;;3.20;2.90;;;3.70;99.90;;;;;;5114783;28;20234;-85
2023/01/19 13:00:36;;;;;;;3.97;2.85;;;3.70;99.90;;;;;;5114522;28;20207;-84
2023/01/19 13:04:08;;;;;;;3.53;3.08;;;3.70;99.90;;;;;;5114339;28;20229;-84
2023/01/19 13:07:16;;;;;;;4.63;3.25;;;3.70;99.90;;;;;;5114188;28;20277;-85
2023/01/19 13:09:44;;;;;;;4.32;3.92;;;3.70;99.90;;;;;;5114109;28;20215;-84
2023/01/19 13:12:29;;;;;;;5.93;5.38;;;3.80;99.90;;;;;;5114519;28;20223;-85
2023/01/19 13:15:40;;;;;;;8.43;7.53;;;3.80;99.90;;;;;;5114115;28;20261;-85
2023/01/19 13:18:18;;;;;;;10.88;8.10;;;3.70;99.90;;;;;;5110719;28;20200;-85
2023/01/19 13:20:56;;;;;;;16.88;11.73;;;3.80;99.90;;;;;;5114221;28;20227;-85
2023/01/19 13:23:26;;;;;;;17.52;12.85;;;3.80;99.90;;;;;;5114214;28;20223;-84
2023/01/19 13:26:02;;;;;;;16.50;10.85;;;3.60;99.90;;;;;;5113871;28;20254;-84
2023/01/19 13:28:43;;;;;;;15.70;9.82;;;3.60;99.90;;;;;;5113234;28;20207;-84
2023/01/19 13:31:12;;;;;;;13.18;11.50;;;3.50;99.90;;;;;;5113633;28;20214;-85
2023/01/19 13:33:49;;;;;;;15.60;10.90;;;3.50;99.90;;;;;;5113646;28;20288;-85
2023/01/19 13:36:22;;;;;;;17.10;11.93;;;3.50;99.90;;;;;;5113827;28;20199;-86
2023/01/19 13:38:59;;;;;;;9.93;8.70;;;3.40;99.90;;;;;;5113933;28;20249;-85
2023/01/19 13:41:30;;;;;;;17.15;8.65;;;3.30;99.90;;;;;;5113447;28;20204;-85
2023/01/19 13:44:06;;;;;;;7.95;7.15;;;3.30;99.90;;;;;;5113388;28;20238;-84
2023/01/19 13:46:43;;;;;;;10.55;7.55;;;3.30;99.90;;;;;;5113666;28;20258;-85
2023/01/19 13:49:17;;;;;;;7.45;6.78;;;3.30;99.90;;;;;;5113320;28;20214;-84
2023/01/19 13:51:45;;;;;;;9.75;7.30;;;3.20;99.90;;;;;;5113461;28;20207;-84
2023/01/19 13:54:17;;;;;;;8.00;7.03;;;3.20;99.90;;;;;;5113325;28;20333;-84
2023/01/19 13:56:55;;;;;;;9.98;7.57;;;3.20;99.90;;;;;;5113495;28;20284;-85
2023/01/19 13:59:28;;;;;;;7.07;6.43;;;3.20;99.90;;;;;;5113730;28;20209;-84
2023/01/19 14:02:11;;;;;;;9.85;6.50;;;3.20;99.90;;;;;;5112924;28;20214;-84
2023/01/19 14:04:40;;;;;;;7.88;7.07;;;3.20;99.90;;;;;;5113348;28;20203;-85
2023/01/19 14:07:24;;;;;;;10.98;7.15;;;3.30;99.90;;;;;;5112537;28;20302;-84
2023/01/19 14:10:03;;;;;;;10.70;7.65;;;3.20;99.90;;;;;;5112732;28;20204;-84
2023/01/19 14:12:32;;;;;;;6.90;6.30;;;3.20;99.90;;;;;;5113227;28;20299;-85
2023/01/19 14:15:03;;;;;;;10.50;8.65;;;3.20;99.90;;;;;;5113073;28;20286;-85
2023/01/19 14:17:32;;;;;;;8.27;7.32;;;3.20;99.90;;;;;;5113212;28;20253;-85
2023/01/19 14:20:00;;;;;;;8.52;7.00;;;3.10;99.90;;;;;;5112809;28;20207;-84
2023/01/19 14:22:40;;;;;;;8.07;7.28;;;3.20;99.90;;;;;;5113002;28;20227;-84
2023/01/19 14:25:30;;;;;;;9.60;7.30;;;3.20;99.90;;;;;;5112930;28;20213;-84
2023/01/19 14:28:38;;;;;;;10.68;8.00;;;3.20;99.90;;;;;;5113074;28;20195;-85
2023/01/19 14:31:22;;;;;;;7.28;6.50;;;3.10;99.90;;;;;;5113318;28;20299;-85
2023/01/19 14:33:53;;;;;;;9.63;7.50;;;3.10;99.90;;;;;;5112458;28;20320;-85
2023/01/19 14:36:38;;;;;;;16.00;7.63;;;3.10;99.90;;;;;;5112888;28;20200;-86
2023/01/19 14:39:22;;;;;;;7.63;6.88;;;3.00;99.90;;;;;;5112899;28;20264;-85
2023/01/19 14:41:55;;;;;;;12.70;7.72;;;2.90;99.90;;;;;;5111686;28;20202;-85